createdAt,value
2022-08-16T00:01:34.284Z,8.70
2022-08-16T00:04:10.745Z,8.90
2022-08-16T00:06:40.604Z,10.60
2022-08-16T00:09:11.033Z,9.70
2022-08-16T00:11:43.726Z,10.30
2022-08-16T00:14:20.109Z,9.90
2022-08-16T00:17:01.303Z,10.30
2022-08-16T00:19:45.151Z,10.10
2022-08-16T00:22:16.817Z,9.60
2022-08-16T00:24:51.291Z,9.60
2022-08-16T00:27:20.827Z,9.50
2022-08-16T00:30:08.711Z,9.60
2022-08-16T00:32:47.620Z,9.60
2022-08-16T00:35:28.931Z,10.60
2022-08-16T00:37:59.506Z,11.00
2022-08-16T00:40:50.794Z,10.00
2022-08-16T00:43:42.834Z,10.40
2022-08-16T00:46:54.036Z,10.30
2022-08-16T00:49:44.901Z,10.70
2022-08-16T00:52:34.305Z,10.70
2022-08-16T00:55:08.510Z,10.60
2022-08-16T00:57:58.837Z,10.80
2022-08-16T01:00:32.201Z,10.50
2022-08-16T01:03:11.707Z,10.20
2022-08-16T01:05:43.973Z,10.80
2022-08-16T01:08:35.990Z,9.60
2022-08-16T01:11:07.461Z,10.40
2022-08-16T01:13:40.482Z,11.70
2022-08-16T01:16:28.361Z,10.20
2022-08-16T01:19:12.120Z,10.90
2022-08-16T01:22:48.592Z,9.90
2022-08-16T01:24:56.067Z,10.20
2022-08-16T01:27:42.020Z,10.90
2022-08-16T01:30:20.402Z,10.90
2022-08-16T01:33:02.316Z,10.80
2022-08-16T01:35:47.634Z,11.00
2022-08-16T01:38:33.851Z,11.90
2022-08-16T01:41:08.258Z,10.90
2022-08-16T01:43:43.045Z,10.90
2022-08-16T01:46:43.047Z,11.70
2022-08-16T01:49:43.630Z,12.10
2022-08-16T01:52:29.408Z,11.30
2022-08-16T01:55:24.860Z,11.00
2022-08-16T01:57:58.694Z,11.30
2022-08-16T02:00:33.615Z,10.90
2022-08-16T02:03:02.654Z,10.40
2022-08-16T02:05:33.232Z,11.20
2022-08-16T02:08:04.794Z,11.70
2022-08-16T02:10:45.583Z,12.00
2022-08-16T02:13:15.984Z,11.20
2022-08-16T02:15:47.008Z,11.40
2022-08-16T02:18:19.877Z,11.00
2022-08-16T02:23:42.248Z,11.60
2022-08-16T02:26:17.025Z,12.30
2022-08-16T02:28:48.148Z,11.70
2022-08-16T02:31:21.910Z,11.80
2022-08-16T02:34:21.172Z,11.20
2022-08-16T02:37:03.801Z,11.90
2022-08-16T02:39:34.948Z,11.90
2022-08-16T02:42:04.225Z,11.70
2022-08-16T02:44:33.452Z,12.30
2022-08-16T02:47:02.504Z,12.00
2022-08-16T02:49:58.694Z,12.20
2022-08-16T02:52:29.273Z,12.30
2022-08-16T02:57:34.674Z,11.80
2022-08-16T03:00:34.173Z,11.40
2022-08-16T03:03:00.375Z,12.10
2022-08-16T03:05:31.016Z,12.70
2022-08-16T03:08:01.835Z,13.10
2022-08-16T03:10:33.395Z,13.20
2022-08-16T03:13:11.464Z,13.30
2022-08-16T03:15:42.461Z,12.30
2022-08-16T03:18:18.691Z,12.10
2022-08-16T03:21:08.298Z,12.50
2022-08-16T03:23:40.125Z,12.80
2022-08-16T03:26:11.803Z,13.10
2022-08-16T03:28:41.521Z,11.80
2022-08-16T03:31:15.028Z,12.50
2022-08-16T03:33:48.718Z,12.20
2022-08-16T03:36:32.622Z,11.70
2022-08-16T03:39:14.897Z,12.70
2022-08-16T03:41:50.017Z,12.10
2022-08-16T03:44:40.671Z,13.10
2022-08-16T03:47:19.035Z,12.30
2022-08-16T03:49:51.513Z,12.60
2022-08-16T03:52:23.589Z,11.90
2022-08-16T03:54:58.162Z,11.40
2022-08-16T03:57:35.536Z,12.50
2022-08-16T04:00:35.224Z,12.50
2022-08-16T04:03:09.116Z,12.50
2022-08-16T04:05:47.395Z,12.00
2022-08-16T04:08:23.774Z,11.60
2022-08-16T04:10:59.780Z,12.00
2022-08-16T04:14:00.265Z,11.80
2022-08-16T04:16:27.161Z,11.20
2022-08-16T04:19:02.496Z,11.90
2022-08-16T04:21:47.253Z,11.90
2022-08-16T04:24:21.793Z,11.90
2022-08-16T04:27:08.964Z,12.40
2022-08-16T04:29:43.990Z,12.80
2022-08-16T04:32:17.795Z,11.50
2022-08-16T04:34:55.714Z,12.40
2022-08-16T04:37:23.938Z,12.30
2022-08-16T04:40:05.658Z,11.80
2022-08-16T04:42:38.354Z,12.20
2022-08-16T04:45:35.578Z,12.60
2022-08-16T04:48:21.695Z,12.30
2022-08-16T04:51:11.830Z,11.30
2022-08-16T04:53:57.857Z,11.30
2022-08-16T04:56:36.244Z,11.70
2022-08-16T04:59:18.899Z,15.60
2022-08-16T05:01:58.731Z,13.00
2022-08-16T05:04:30.723Z,12.40
2022-08-16T05:07:04.467Z,11.60
2022-08-16T05:12:42.033Z,12.90
2022-08-16T05:15:15.203Z,11.90
2022-08-16T05:17:58.356Z,11.60
2022-08-16T05:20:35.297Z,11.40
2022-08-16T05:23:17.355Z,11.50
2022-08-16T05:25:49.031Z,11.90
2022-08-16T05:28:31.035Z,11.50
2022-08-16T05:31:09.233Z,10.90
2022-08-16T05:33:42.316Z,11.10
2022-08-16T05:36:14.314Z,11.10
2022-08-16T05:38:58.306Z,11.10
2022-08-16T05:41:28.576Z,11.20
2022-08-16T05:44:05.555Z,11.80
2022-08-16T05:47:00.810Z,12.00
2022-08-16T05:49:38.596Z,11.80
2022-08-16T05:52:27.902Z,11.10
2022-08-16T05:55:01.504Z,10.90
2022-08-16T05:57:36.515Z,12.40
2022-08-16T06:00:11.073Z,11.30
2022-08-16T06:02:44.178Z,12.10
2022-08-16T06:05:28.634Z,11.60
2022-08-16T06:07:59.408Z,11.90
2022-08-16T06:11:09.778Z,11.40
2022-08-16T06:13:32.667Z,10.50
2022-08-16T06:16:01.138Z,10.40
2022-08-16T06:18:36.902Z,11.40
2022-08-16T06:21:09.510Z,11.10
2022-08-16T06:23:40.723Z,11.80
2022-08-16T06:26:18.650Z,11.00
2022-08-16T06:28:48.811Z,11.30
2022-08-16T06:31:24.904Z,10.90
2022-08-16T06:34:01.260Z,14.70
2022-08-16T06:36:33.452Z,12.10
2022-08-16T06:39:25.152Z,21.20
2022-08-16T06:42:00.231Z,13.20
2022-08-16T06:44:49.685Z,13.30
2022-08-16T06:47:53.303Z,10.80
2022-08-16T06:50:29.266Z,10.80
2022-08-16T06:53:19.853Z,10.30
2022-08-16T06:56:01.979Z,11.10
2022-08-16T06:58:54.664Z,10.90
2022-08-16T07:01:43.385Z,11.70
2022-08-16T07:04:32.490Z,11.30
2022-08-16T07:07:11.071Z,11.60
2022-08-16T07:09:43.514Z,12.30
2022-08-16T07:12:19.578Z,10.30
2022-08-16T07:15:00.006Z,11.10
2022-08-16T07:20:35.415Z,12.30
2022-08-16T07:22:58.965Z,11.20
2022-08-16T07:26:00.644Z,11.80
2022-08-16T07:28:33.293Z,11.50
2022-08-16T07:31:06.073Z,10.60
2022-08-16T07:33:54.699Z,10.70
2022-08-16T07:36:38.661Z,11.50
2022-08-16T07:39:10.212Z,11.70
2022-08-16T07:41:51.138Z,12.10
2022-08-16T07:44:22.084Z,11.60
2022-08-16T07:46:55.423Z,12.00
2022-08-16T07:49:32.304Z,11.10
2022-08-16T07:52:19.070Z,15.30
2022-08-16T07:54:55.609Z,16.60
2022-08-16T07:57:38.180Z,29.10
2022-08-16T08:00:37.735Z,11.60
2022-08-16T08:03:15.099Z,11.60
2022-08-16T08:05:49.631Z,11.20
2022-08-16T08:08:50.643Z,11.40
2022-08-16T08:11:28.813Z,11.60
2022-08-16T08:14:29.960Z,11.20
2022-08-16T08:17:15.881Z,10.20
2022-08-16T08:19:53.126Z,10.60
2022-08-16T08:22:30.061Z,9.40
2022-08-16T08:25:08.518Z,10.20
2022-08-16T08:27:47.421Z,9.70
2022-08-16T08:30:51.675Z,9.60
2022-08-16T08:33:12.377Z,10.70
2022-08-16T08:35:47.531Z,10.00
2022-08-16T08:38:43.815Z,11.00
2022-08-16T08:41:28.459Z,10.80
2022-08-16T08:44:29.465Z,10.30
2022-08-16T08:47:11.032Z,10.20
2022-08-16T08:49:55.128Z,10.40
2022-08-16T08:52:37.786Z,10.30
2022-08-16T08:55:23.374Z,9.80
2022-08-16T08:58:09.045Z,10.30
2022-08-16T09:01:03.420Z,10.80
2022-08-16T09:03:37.762Z,9.60
2022-08-16T09:06:12.390Z,9.80
2022-08-16T09:08:56.357Z,9.70
2022-08-16T09:11:40.630Z,9.00
2022-08-16T09:14:23.702Z,9.30
2022-08-16T09:17:02.798Z,8.80
2022-08-16T09:19:40.670Z,9.00
2022-08-16T09:22:20.972Z,9.50
2022-08-16T09:24:58.080Z,18.70
2022-08-16T09:27:56.845Z,8.80
2022-08-16T09:30:34.461Z,9.30
2022-08-16T09:33:19.977Z,9.00
2022-08-16T09:35:54.508Z,9.30
2022-08-16T09:38:32.152Z,8.50
2022-08-16T09:41:14.547Z,8.40
2022-08-16T09:44:00.893Z,9.70
2022-08-16T09:46:48.741Z,8.70
2022-08-16T09:49:25.501Z,8.90
2022-08-16T09:52:09.824Z,8.70
2022-08-16T09:54:44.571Z,7.90
2022-08-16T09:57:19.726Z,9.00
2022-08-16T09:59:56.537Z,8.30
2022-08-16T10:02:27.870Z,8.90
2022-08-16T10:05:03.695Z,7.50
2022-08-16T10:07:43.999Z,7.60
2022-08-16T10:10:18.709Z,7.00
2022-08-16T10:13:19.173Z,6.70
2022-08-16T10:15:58.704Z,7.70
2022-08-16T10:18:56.745Z,7.40
2022-08-16T10:21:19.988Z,7.20
2022-08-16T10:23:55.697Z,7.10
2022-08-16T10:27:17.136Z,7.50
2022-08-16T10:29:25.585Z,8.00
2022-08-16T10:32:21.075Z,7.50
2022-08-16T10:34:52.223Z,6.80
2022-08-16T10:37:32.548Z,7.50
2022-08-16T10:40:29.378Z,7.30
2022-08-16T10:43:02.819Z,6.60
2022-08-16T10:45:43.573Z,6.70
2022-08-16T10:48:36.843Z,6.00
2022-08-16T10:54:05.826Z,4.90
2022-08-16T10:56:57.017Z,5.50
2022-08-16T10:59:44.933Z,4.90
2022-08-16T11:03:00.397Z,4.60
2022-08-16T11:05:18.052Z,4.90
2022-08-16T11:07:53.369Z,5.40
2022-08-16T11:13:57.172Z,6.00
2022-08-16T11:17:02.228Z,5.50
2022-08-16T11:19:13.132Z,5.10
2022-08-16T11:24:44.993Z,5.00
2022-08-16T11:27:23.623Z,4.90
2022-08-16T11:29:56.256Z,5.50
2022-08-16T11:32:31.395Z,6.70
2022-08-16T11:35:19.511Z,5.30
2022-08-16T11:38:46.265Z,4.70
2022-08-16T11:41:06.904Z,5.20
2022-08-16T11:43:38.958Z,4.50
2022-08-16T11:46:45.410Z,5.00
2022-08-16T11:49:08.674Z,5.00
2022-08-16T11:51:44.613Z,7.00
2022-08-16T11:54:20.481Z,5.00
2022-08-16T11:56:57.617Z,5.60
2022-08-16T11:59:32.727Z,5.50
2022-08-16T12:02:04.124Z,5.20
2022-08-16T12:04:51.921Z,5.70
2022-08-16T12:07:27.790Z,5.40
2022-08-16T12:09:58.789Z,5.50
2022-08-16T12:12:32.783Z,6.10
2022-08-16T12:15:05.665Z,4.70
2022-08-16T12:17:43.501Z,5.60
2022-08-16T12:20:21.679Z,5.00
2022-08-16T12:22:51.370Z,5.20
2022-08-16T12:25:28.537Z,7.00
2022-08-16T12:28:00.681Z,4.50
2022-08-16T12:30:47.456Z,5.90
2022-08-16T12:33:25.597Z,5.40
2022-08-16T12:36:00.601Z,6.90
2022-08-16T12:38:41.057Z,7.00
2022-08-16T12:41:24.623Z,5.50
2022-08-16T12:44:04.042Z,6.00
2022-08-16T12:46:37.562Z,8.30
2022-08-16T12:49:09.403Z,6.20
2022-08-16T12:51:59.404Z,7.50
2022-08-16T12:54:32.546Z,6.40
2022-08-16T12:57:14.123Z,5.80
2022-08-16T12:59:43.053Z,6.10
2022-08-16T13:02:33.734Z,6.90
2022-08-16T13:08:01.004Z,5.90
2022-08-16T13:10:37.693Z,5.40
2022-08-16T13:13:26.133Z,5.00
2022-08-16T13:16:03.711Z,5.40
2022-08-16T13:21:29.048Z,5.50
2022-08-16T13:24:04.186Z,5.20
2022-08-16T13:26:42.509Z,5.70
2022-08-16T13:29:14.832Z,5.90
2022-08-16T13:31:53.875Z,5.60
2022-08-16T13:34:29.753Z,5.30
2022-08-16T13:36:57.573Z,4.70
2022-08-16T13:39:38.406Z,4.70
2022-08-16T13:42:21.105Z,4.40
2022-08-16T13:44:58.014Z,5.00
2022-08-16T13:47:30.159Z,6.30
2022-08-16T13:50:03.237Z,4.80
2022-08-16T13:52:34.584Z,4.10
2022-08-16T13:55:22.658Z,7.00
2022-08-16T13:58:37.805Z,4.30
2022-08-16T14:00:45.757Z,4.80
2022-08-16T14:03:21.621Z,3.80
2022-08-16T14:05:58.964Z,4.10
2022-08-16T14:08:50.331Z,5.20
2022-08-16T14:11:33.915Z,4.00
2022-08-16T14:14:05.570Z,5.40
2022-08-16T14:17:09.731Z,4.60
2022-08-16T14:19:45.117Z,4.30
2022-08-16T14:22:30.852Z,5.30
2022-08-16T14:25:03.451Z,3.90
2022-08-16T14:27:54.413Z,4.30
2022-08-16T14:30:34.893Z,4.10
2022-08-16T14:33:05.864Z,4.20
2022-08-16T14:35:49.167Z,3.90
2022-08-16T14:38:23.770Z,4.10
2022-08-16T14:40:55.606Z,3.70
2022-08-16T14:43:30.779Z,5.10
2022-08-16T14:46:00.683Z,5.70
2022-08-16T14:48:37.382Z,5.40
2022-08-16T14:51:06.082Z,4.50
2022-08-16T14:53:45.170Z,4.70
2022-08-16T14:56:38.157Z,5.70
2022-08-16T14:59:11.254Z,4.40
2022-08-16T15:01:59.791Z,5.20
2022-08-16T15:04:47.686Z,4.10
2022-08-16T15:07:22.039Z,3.90
2022-08-16T15:10:00.331Z,3.50
2022-08-16T15:12:43.729Z,3.90
2022-08-16T15:15:23.191Z,4.40
2022-08-16T15:17:57.112Z,4.60
2022-08-16T15:20:33.004Z,7.00
2022-08-16T15:23:08.705Z,6.80
2022-08-16T15:25:43.535Z,4.50
2022-08-16T15:28:30.947Z,4.60
2022-08-16T15:31:13.180Z,4.70
2022-08-16T15:33:58.020Z,5.00
2022-08-16T15:36:44.798Z,4.90
2022-08-16T15:39:30.401Z,4.70
2022-08-16T15:44:58.626Z,5.50
2022-08-16T15:47:37.938Z,6.40
2022-08-16T15:50:11.476Z,6.60
2022-08-16T15:52:45.346Z,5.10
2022-08-16T15:55:29.776Z,6.50
2022-08-16T15:58:34.865Z,6.60
2022-08-16T16:01:08.236Z,5.00
2022-08-16T16:03:42.866Z,5.00
2022-08-16T16:06:21.478Z,5.10
2022-08-16T16:09:09.513Z,5.60
2022-08-16T16:11:46.789Z,12.50
2022-08-16T16:14:21.796Z,5.70
2022-08-16T16:17:16.534Z,8.40
2022-08-16T16:19:49.547Z,6.70
2022-08-16T16:22:23.085Z,7.50
2022-08-16T16:25:08.231Z,13.40
2022-08-16T16:27:40.459Z,7.20
2022-08-16T16:30:33.060Z,7.60
2022-08-16T16:36:37.575Z,7.20
2022-08-16T16:39:41.164Z,6.90
2022-08-16T16:42:29.531Z,7.00
2022-08-16T16:45:10.532Z,6.90
2022-08-16T16:48:34.348Z,7.10
2022-08-16T16:52:11.075Z,14.30
2022-08-16T16:59:42.942Z,7.80
2022-08-16T17:02:41.821Z,6.60
2022-08-16T17:08:41.716Z,6.80
2022-08-16T17:11:26.261Z,6.30
2022-08-16T17:17:08.612Z,6.80
2022-08-16T17:19:55.035Z,7.00
2022-08-16T17:22:32.724Z,6.90
2022-08-16T17:25:22.992Z,7.60
2022-08-16T17:27:58.724Z,6.50
2022-08-16T17:30:45.141Z,8.50
2022-08-16T17:33:37.204Z,7.30
2022-08-16T17:36:52.769Z,7.50
2022-08-16T17:39:53.423Z,7.80
2022-08-16T17:42:34.018Z,6.80
2022-08-16T17:45:08.966Z,7.90
2022-08-16T17:47:42.863Z,7.60
2022-08-16T17:50:29.751Z,8.40
2022-08-16T17:53:23.656Z,7.80
2022-08-16T17:56:09.761Z,13.30
2022-08-16T17:58:47.977Z,9.60
2022-08-16T18:01:30.579Z,16.00
2022-08-16T18:04:10.109Z,10.50
2022-08-16T18:09:41.908Z,7.70
2022-08-16T18:12:51.070Z,9.00
2022-08-16T18:15:34.699Z,9.80
2022-08-16T18:18:21.865Z,9.10
2022-08-16T18:21:25.213Z,8.80
2022-08-16T18:27:25.301Z,9.40
2022-08-16T18:30:16.181Z,8.30
2022-08-16T18:36:20.516Z,8.80
2022-08-16T18:39:00.440Z,9.60
2022-08-16T18:41:38.512Z,8.50
2022-08-16T18:44:29.198Z,8.70
2022-08-16T18:47:17.143Z,8.30
2022-08-16T18:50:00.749Z,9.60
2022-08-16T18:52:45.945Z,8.50
2022-08-16T18:55:26.702Z,9.30
2022-08-16T18:58:13.641Z,13.20
2022-08-16T19:00:56.429Z,13.20
2022-08-16T19:03:43.812Z,11.50
2022-08-16T19:06:18.907Z,12.10
2022-08-16T19:09:05.851Z,11.40
2022-08-16T19:12:07.312Z,12.80
2022-08-16T19:14:47.386Z,13.10
2022-08-16T19:20:20.383Z,15.50
2022-08-16T19:23:21.993Z,9.80
2022-08-16T19:26:24.746Z,9.90
2022-08-16T19:29:00.003Z,9.60
2022-08-16T19:31:39.619Z,9.90
2022-08-16T19:34:19.834Z,10.80
2022-08-16T19:37:18.209Z,11.90
2022-08-16T19:39:59.359Z,10.80
2022-08-16T19:42:50.399Z,9.90
2022-08-16T19:45:20.557Z,9.10
2022-08-16T19:48:07.232Z,9.20
2022-08-16T19:50:39.225Z,9.20
2022-08-16T19:53:19.618Z,7.90
2022-08-16T19:56:07.113Z,8.30
2022-08-16T19:59:16.990Z,8.00
2022-08-16T20:02:36.125Z,8.50
2022-08-16T20:05:44.621Z,8.20
2022-08-16T20:08:40.921Z,8.90
2022-08-16T20:11:17.755Z,9.20
2022-08-16T20:14:07.002Z,11.30
2022-08-16T20:16:46.174Z,14.20
2022-08-16T20:19:51.771Z,11.60
2022-08-16T20:22:52.955Z,12.70
2022-08-16T20:29:11.759Z,13.30
2022-08-16T20:32:08.754Z,13.30
2022-08-16T20:35:08.979Z,12.80
2022-08-16T20:37:48.046Z,13.00
2022-08-16T20:40:34.427Z,12.20
2022-08-16T20:43:18.655Z,12.70
2022-08-16T20:46:05.970Z,13.50
2022-08-16T20:48:51.375Z,12.20
2022-08-16T20:51:49.519Z,12.80
2022-08-16T21:01:03.570Z,14.10
2022-08-16T21:13:46.841Z,13.60
2022-08-16T21:16:44.722Z,13.00
2022-08-16T21:30:08.538Z,13.40
2022-08-16T21:33:22.219Z,12.20
2022-08-16T21:39:04.996Z,11.90
2022-08-16T21:42:08.589Z,12.10
2022-08-16T21:45:04.641Z,12.40
2022-08-16T21:48:19.814Z,12.50
2022-08-16T21:51:40.934Z,12.30
2022-08-16T21:54:26.042Z,13.60
2022-08-16T21:57:10.165Z,11.70
2022-08-16T22:02:51.204Z,11.70
2022-08-16T22:08:49.256Z,12.50
2022-08-16T22:11:31.711Z,14.00
2022-08-16T22:14:13.370Z,13.10
2022-08-16T22:17:08.177Z,14.20
2022-08-16T22:19:57.419Z,14.20
2022-08-16T22:22:42.395Z,14.50
2022-08-16T22:25:20.978Z,13.70
2022-08-16T22:27:55.630Z,12.00
2022-08-16T22:30:29.157Z,13.20
2022-08-16T22:33:07.951Z,12.50
2022-08-16T22:36:04.028Z,11.60
2022-08-16T22:38:56.475Z,12.70
2022-08-16T22:41:36.443Z,12.70
2022-08-16T22:44:20.315Z,12.80
2022-08-16T22:50:07.083Z,12.50
2022-08-16T22:52:59.611Z,13.60
2022-08-16T22:55:48.045Z,11.80
2022-08-16T22:58:23.677Z,12.10
2022-08-16T23:01:31.300Z,11.00
2022-08-16T23:04:31.900Z,11.90
2022-08-16T23:07:13.450Z,12.00
2022-08-16T23:10:05.495Z,12.70
2022-08-16T23:12:56.521Z,15.50
2022-08-16T23:15:53.849Z,14.00
2022-08-16T23:18:56.134Z,13.20
2022-08-16T23:21:40.656Z,13.30
2022-08-16T23:24:26.963Z,12.60
2022-08-16T23:27:56.126Z,12.80
2022-08-16T23:30:47.366Z,12.90
2022-08-16T23:33:47.698Z,12.70
2022-08-16T23:37:05.395Z,12.70
2022-08-16T23:39:48.980Z,13.10
2022-08-16T23:42:41.915Z,12.00
2022-08-16T23:46:02.517Z,12.70
2022-08-16T23:51:47.998Z,13.50
2022-08-16T23:54:22.893Z,13.20
2022-08-16T23:57:07.089Z,12.00
